sensor_id;sensor_type;location;lat;lon;timestamp;temperature;humidity
18948;DHT22;9607;51.600;7.558;2023-04-15T00:00:15;6.20;99.90
18948;DHT22;9607;51.600;7.558;2023-04-15T00:02:42;6.10;99.90
18948;DHT22;9607;51.600;7.558;2023-04-15T00:05:10;6.10;99.90
18948;DHT22;9607;51.600;7.558;2023-04-15T00:07:38;6.00;99.90
18948;DHT22;9607;51.600;7.558;2023-04-15T00:10:06;6.10;99.90
18948;DHT22;9607;51.600;7.558;2023-04-15T00:12:33;6.10;99.90
18948;DHT22;9607;51.600;7.558;2023-04-15T00:15:00;6.00;99.90
18948;DHT22;9607;51.600;7.558;2023-04-15T00:17:27;6.00;99.90
18948;DHT22;9607;51.600;7.558;2023-04-15T00:19:54;6.00;99.90
18948;DHT22;9607;51.600;7.558;2023-04-15T00:22:22;6.00;99.90
18948;DHT22;9607;51.600;7.558;2023-04-15T00:24:52;6.00;99.90
18948;DHT22;9607;51.600;7.558;2023-04-15T00:27:18;5.90;99.90
18948;DHT22;9607;51.600;7.558;2023-04-15T00:29:46;5.90;99.90
18948;DHT22;9607;51.600;7.558;2023-04-15T00:32:12;5.90;99.90
18948;DHT22;9607;51.600;7.558;2023-04-15T00:34:39;5.90;99.90
18948;DHT22;9607;51.600;7.558;2023-04-15T00:37:07;5.90;99.90
18948;DHT22;9607;51.600;7.558;2023-04-15T00:39:34;5.90;99.90
18948;DHT22;9607;51.600;7.558;2023-04-15T00:42:03;5.90;99.90
18948;DHT22;9607;51.600;7.558;2023-04-15T00:44:30;5.80;99.90
18948;DHT22;9607;51.600;7.558;2023-04-15T00:46:59;5.80;99.90
18948;DHT22;9607;51.600;7.558;2023-04-15T00:49:26;5.80;99.90
18948;DHT22;9607;51.600;7.558;2023-04-15T00:51:54;5.70;99.90
18948;DHT22;9607;51.600;7.558;2023-04-15T00:54:21;5.70;99.90
18948;DHT22;9607;51.600;7.558;2023-04-15T00:56:48;5.60;99.90
18948;DHT22;9607;51.600;7.558;2023-04-15T00:59:18;5.60;99.90
18948;DHT22;9607;51.600;7.558;2023-04-15T01:01:45;5.60;99.90
18948;DHT22;9607;51.600;7.558;2023-04-15T01:04:12;5.60;99.90
18948;DHT22;9607;51.600;7.558;2023-04-15T01:06:40;5.60;99.90
18948;DHT22;9607;51.600;7.558;2023-04-15T01:09:06;5.60;99.90
18948;DHT22;9607;51.600;7.558;2023-04-15T01:11:34;5.60;99.90
18948;DHT22;9607;51.600;7.558;2023-04-15T01:14:01;5.60;99.90
18948;DHT22;9607;51.600;7.558;2023-04-15T01:16:30;5.50;99.90
18948;DHT22;9607;51.600;7.558;2023-04-15T01:18:57;5.40;99.90
18948;DHT22;9607;51.600;7.558;2023-04-15T01:21:24;5.40;99.90
18948;DHT22;9607;51.600;7.558;2023-04-15T01:23:52;5.40;99.90
18948;DHT22;9607;51.600;7.558;2023-04-15T01:26:22;5.40;99.90
18948;DHT22;9607;51.600;7.558;2023-04-15T01:28:49;5.30;99.90
18948;DHT22;9607;51.600;7.558;2023-04-15T01:31:16;5.30;99.90
18948;DHT22;9607;51.600;7.558;2023-04-15T01:33:43;5.20;99.90
18948;DHT22;9607;51.600;7.558;2023-04-15T01:36:09;5.20;99.90
18948;DHT22;9607;51.600;7.558;2023-04-15T01:38:37;5.10;99.90
18948;DHT22;9607;51.600;7.558;2023-04-15T01:41:04;5.10;99.90
18948;DHT22;9607;51.600;7.558;2023-04-15T01:43:33;5.00;99.90
18948;DHT22;9607;51.600;7.558;2023-04-15T01:46:01;5.00;99.90
18948;DHT22;9607;51.600;7.558;2023-04-15T01:48:28;4.90;99.90
18948;DHT22;9607;51.600;7.558;2023-04-15T01:50:55;4.90;99.90
18948;DHT22;9607;51.600;7.558;2023-04-15T01:53:23;4.90;99.90
18948;DHT22;9607;51.600;7.558;2023-04-15T01:55:50;4.90;99.90
18948;DHT22;9607;51.600;7.558;2023-04-15T01:58:19;4.90;99.90
18948;DHT22;9607;51.600;7.558;2023-04-15T02:00:48;4.90;99.90
18948;DHT22;9607;51.600;7.558;2023-04-15T02:03:16;4.80;99.90
18948;DHT22;9607;51.600;7.558;2023-04-15T02:05:43;4.80;99.90
18948;DHT22;9607;51.600;7.558;2023-04-15T02:08:10;4.70;99.90
18948;DHT22;9607;51.600;7.558;2023-04-15T02:10:37;4.70;99.90
18948;DHT22;9607;51.600;7.558;2023-04-15T02:13:04;4.70;99.90
18948;DHT22;9607;51.600;7.558;2023-04-15T02:15:31;4.60;99.90
18948;DHT22;9607;51.600;7.558;2023-04-15T02:18:00;4.60;99.90
18948;DHT22;9607;51.600;7.558;2023-04-15T02:20:27;4.60;99.90
18948;DHT22;9607;51.600;7.558;2023-04-15T02:22:55;4.60;99.90
18948;DHT22;9607;51.600;7.558;2023-04-15T02:25:22;4.50;99.90
18948;DHT22;9607;51.600;7.558;2023-04-15T02:27:49;4.60;99.90
18948;DHT22;9607;51.600;7.558;2023-04-15T02:30:16;4.50;99.90
18948;DHT22;9607;51.600;7.558;2023-04-15T02:32:43;4.50;99.90
18948;DHT22;9607;51.600;7.558;2023-04-15T02:35:11;4.50;99.90
18948;DHT22;9607;51.600;7.558;2023-04-15T02:37:37;4.50;99.90
18948;DHT22;9607;51.600;7.558;2023-04-15T02:40:08;4.50;99.90
18948;DHT22;9607;51.600;7.558;2023-04-15T02:42:36;4.50;99.90
18948;DHT22;9607;51.600;7.558;2023-04-15T02:47:32;4.40;99.90
18948;DHT22;9607;51.600;7.558;2023-04-15T02:49:59;4.30;99.90
18948;DHT22;9607;51.600;7.558;2023-04-15T02:52:27;4.30;99.90
18948;DHT22;9607;51.600;7.558;2023-04-15T02:54:54;4.30;99.90
18948;DHT22;9607;51.600;7.558;2023-04-15T02:57:25;4.20;99.90
18948;DHT22;9607;51.600;7.558;2023-04-15T02:59:52;4.20;99.90
18948;DHT22;9607;51.600;7.558;2023-04-15T03:02:19;4.20;99.90
18948;DHT22;9607;51.600;7.558;2023-04-15T03:04:46;4.20;99.90
18948;DHT22;9607;51.600;7.558;2023-04-15T03:07:13;4.10;99.90
18948;DHT22;9607;51.600;7.558;2023-04-15T03:09:41;4.20;99.90
18948;DHT22;9607;51.600;7.558;2023-04-15T03:12:09;4.00;99.90
18948;DHT22;9607;51.600;7.558;2023-04-15T03:14:35;4.00;99.90
18948;DHT22;9607;51.600;7.558;2023-04-15T03:17:02;4.10;99.90
18948;DHT22;9607;51.600;7.558;2023-04-15T03:19:29;4.10;99.90
18948;DHT22;9607;51.600;7.558;2023-04-15T03:21:56;4.10;99.90
18948;DHT22;9607;51.600;7.558;2023-04-15T03:24:23;4.00;99.90
18948;DHT22;9607;51.600;7.558;2023-04-15T03:26:51;4.10;99.90
18948;DHT22;9607;51.600;7.558;2023-04-15T03:29:19;4.10;99.90
18948;DHT22;9607;51.600;7.558;2023-04-15T03:31:46;4.10;99.90
18948;DHT22;9607;51.600;7.558;2023-04-15T03:34:13;4.00;99.90
18948;DHT22;9607;51.600;7.558;2023-04-15T03:36:39;4.00;99.90
18948;DHT22;9607;51.600;7.558;2023-04-15T03:39:06;4.10;99.90
18948;DHT22;9607;51.600;7.558;2023-04-15T03:41:33;4.10;99.90
18948;DHT22;9607;51.600;7.558;2023-04-15T03:44:01;4.10;99.90
18948;DHT22;9607;51.600;7.558;2023-04-15T03:46:28;4.10;99.90
18948;DHT22;9607;51.600;7.558;2023-04-15T03:48:56;4.10;99.90
18948;DHT22;9607;51.600;7.558;2023-04-15T03:51:23;4.10;99.90
18948;DHT22;9607;51.600;7.558;2023-04-15T03:53:50;4.10;99.90
18948;DHT22;9607;51.600;7.558;2023-04-15T03:56:17;4.10;99.90
18948;DHT22;9607;51.600;7.558;2023-04-15T03:58:44;4.10;99.90
18948;DHT22;9607;51.600;7.558;2023-04-15T04:01:12;4.00;99.90
18948;DHT22;9607;51.600;7.558;2023-04-15T04:03:39;4.00;99.90
18948;DHT22;9607;51.600;7.558;2023-04-15T04:06:10;3.90;99.90
18948;DHT22;9607;51.600;7.558;2023-04-15T04:08:37;3.90;99.90
18948;DHT22;9607;51.600;7.558;2023-04-15T04:11:04;3.80;99.90
18948;DHT22;9607;51.600;7.558;2023-04-15T04:13:31;3.80;99.90
18948;DHT22;9607;51.600;7.558;2023-04-15T04:15:58;3.70;99.90
18948;DHT22;9607;51.600;7.558;2023-04-15T04:18:26;3.70;99.90
18948;DHT22;9607;51.600;7.558;2023-04-15T04:20:56;3.80;99.90
18948;DHT22;9607;51.600;7.558;2023-04-15T04:23:23;3.80;99.90
18948;DHT22;9607;51.600;7.558;2023-04-15T04:25:50;3.80;99.90
18948;DHT22;9607;51.600;7.558;2023-04-15T04:28:17;3.80;99.90
18948;DHT22;9607;51.600;7.558;2023-04-15T04:30:44;3.80;99.90
18948;DHT22;9607;51.600;7.558;2023-04-15T04:33:11;3.80;99.90
18948;DHT22;9607;51.600;7.558;2023-04-15T04:35:39;3.80;99.90
18948;DHT22;9607;51.600;7.558;2023-04-15T04:38:06;3.80;99.90
18948;DHT22;9607;51.600;7.558;2023-04-15T04:40:33;3.70;99.90
18948;DHT22;9607;51.600;7.558;2023-04-15T04:43:00;3.70;99.90
18948;DHT22;9607;51.600;7.558;2023-04-15T04:45:26;3.70;99.90
18948;DHT22;9607;51.600;7.558;2023-04-15T04:47:54;3.70;99.90
18948;DHT22;9607;51.600;7.558;2023-04-15T04:50:21;3.70;99.90
18948;DHT22;9607;51.600;7.558;2023-04-15T04:52:49;3.70;99.90
18948;DHT22;9607;51.600;7.558;2023-04-15T04:55:16;3.70;99.90
18948;DHT22;9607;51.600;7.558;2023-04-15T04:57:43;3.70;99.90
18948;DHT22;9607;51.600;7.558;2023-04-15T05:00:10;3.80;99.90
18948;DHT22;9607;51.600;7.558;2023-04-15T05:02:38;3.80;99.90
18948;DHT22;9607;51.600;7.558;2023-04-15T05:05:06;3.80;99.90
18948;DHT22;9607;51.600;7.558;2023-04-15T05:07:33;3.90;99.90
18948;DHT22;9607;51.600;7.558;2023-04-15T05:10:02;3.90;99.90
18948;DHT22;9607;51.600;7.558;2023-04-15T05:12:29;3.90;99.90
18948;DHT22;9607;51.600;7.558;2023-04-15T05:14:56;4.00;99.90
18948;DHT22;9607;51.600;7.558;2023-04-15T05:17:22;4.10;99.90
18948;DHT22;9607;51.600;7.558;2023-04-15T05:19:49;4.20;99.90
18948;DHT22;9607;51.600;7.558;2023-04-15T05:22:16;4.30;99.90
18948;DHT22;9607;51.600;7.558;2023-04-15T05:24:43;4.40;99.90
18948;DHT22;9607;51.600;7.558;2023-04-15T05:27:11;4.40;99.90
18948;DHT22;9607;51.600;7.558;2023-04-15T05:29:38;4.50;99.90
18948;DHT22;9607;51.600;7.558;2023-04-15T05:32:05;4.60;99.90
18948;DHT22;9607;51.600;7.558;2023-04-15T05:34:32;4.70;99.90
18948;DHT22;9607;51.600;7.558;2023-04-15T05:36:59;4.80;99.90
18948;DHT22;9607;51.600;7.558;2023-04-15T05:39:25;4.90;99.90
18948;DHT22;9607;51.600;7.558;2023-04-15T05:41:52;5.00;99.90
18948;DHT22;9607;51.600;7.558;2023-04-15T05:44:20;5.10;99.90
18948;DHT22;9607;51.600;7.558;2023-04-15T05:46:47;5.30;99.90
18948;DHT22;9607;51.600;7.558;2023-04-15T05:49:14;5.40;99.90
18948;DHT22;9607;51.600;7.558;2023-04-15T05:51:41;5.50;99.90
18948;DHT22;9607;51.600;7.558;2023-04-15T05:54:08;5.60;99.90
18948;DHT22;9607;51.600;7.558;2023-04-15T05:56:35;5.70;99.90
18948;DHT22;9607;51.600;7.558;2023-04-15T05:59:02;5.90;99.90
18948;DHT22;9607;51.600;7.558;2023-04-15T06:01:30;6.00;99.90
18948;DHT22;9607;51.600;7.558;2023-04-15T06:03:57;6.20;99.90
18948;DHT22;9607;51.600;7.558;2023-04-15T06:06:24;6.20;99.90
18948;DHT22;9607;51.600;7.558;2023-04-15T06:08:51;6.30;99.90
18948;DHT22;9607;51.600;7.558;2023-04-15T06:11:20;6.50;99.90
18948;DHT22;9607;51.600;7.558;2023-04-15T06:13:47;6.60;99.90
18948;DHT22;9607;51.600;7.558;2023-04-15T06:16:13;6.70;99.90
18948;DHT22;9607;51.600;7.558;2023-04-15T06:18:42;6.80;99.90
18948;DHT22;9607;51.600;7.558;2023-04-15T06:21:09;7.00;99.90
18948;DHT22;9607;51.600;7.558;2023-04-15T06:23:36;7.20;99.90
18948;DHT22;9607;51.600;7.558;2023-04-15T06:26:05;7.20;99.90
18948;DHT22;9607;51.600;7.558;2023-04-15T06:28:32;7.40;99.90
18948;DHT22;9607;51.600;7.558;2023-04-15T06:30:59;7.50;99.90
18948;DHT22;9607;51.600;7.558;2023-04-15T06:33:27;7.60;99.90
18948;DHT22;9607;51.600;7.558;2023-04-15T06:35:55;7.70;99.90
18948;DHT22;9607;51.600;7.558;2023-04-15T06:38:22;7.70;99.90
18948;DHT22;9607;51.600;7.558;2023-04-15T06:40:48;7.80;99.90
18948;DHT22;9607;51.600;7.558;2023-04-15T06:43:16;7.90;99.90
18948;DHT22;9607;51.600;7.558;2023-04-15T06:45:42;8.00;99.90
18948;DHT22;9607;51.600;7.558;2023-04-15T06:48:12;8.20;99.90
18948;DHT22;9607;51.600;7.558;2023-04-15T06:50:40;8.30;99.90
18948;DHT22;9607;51.600;7.558;2023-04-15T06:53:09;8.40;99.90
18948;DHT22;9607;51.600;7.558;2023-04-15T06:55:35;8.60;99.90
18948;DHT22;9607;51.600;7.558;2023-04-15T06:58:02;8.70;99.90
18948;DHT22;9607;51.600;7.558;2023-04-15T07:00:29;8.90;99.90
18948;DHT22;9607;51.600;7.558;2023-04-15T07:02:58;9.10;99.90
18948;DHT22;9607;51.600;7.558;2023-04-15T07:05:27;9.30;99.90
18948;DHT22;9607;51.600;7.558;2023-04-15T07:07:54;9.40;99.90
18948;DHT22;9607;51.600;7.558;2023-04-15T07:10:23;9.60;99.90
18948;DHT22;9607;51.600;7.558;2023-04-15T07:12:49;9.80;99.90
18948;DHT22;9607;51.600;7.558;2023-04-15T07:15:17;9.80;99.90
18948;DHT22;9607;51.600;7.558;2023-04-15T07:17:44;9.90;99.90
18948;DHT22;9607;51.600;7.558;2023-04-15T07:20:11;9.90;99.90
18948;DHT22;9607;51.600;7.558;2023-04-15T07:22:39;10.00;99.90
18948;DHT22;9607;51.600;7.558;2023-04-15T07:25:07;10.20;99.90
18948;DHT22;9607;51.600;7.558;2023-04-15T07:27:35;10.20;99.90
18948;DHT22;9607;51.600;7.558;2023-04-15T07:30:02;10.40;99.90
18948;DHT22;9607;51.600;7.558;2023-04-15T07:32:29;10.50;99.90
18948;DHT22;9607;51.600;7.558;2023-04-15T07:34:56;10.60;99.90
18948;DHT22;9607;51.600;7.558;2023-04-15T07:37:23;10.70;99.90
18948;DHT22;9607;51.600;7.558;2023-04-15T07:39:50;10.90;99.90
18948;DHT22;9607;51.600;7.558;2023-04-15T07:42:17;11.10;99.90
18948;DHT22;9607;51.600;7.558;2023-04-15T07:44:45;11.30;99.90
18948;DHT22;9607;51.600;7.558;2023-04-15T07:47:12;11.40;99.90
18948;DHT22;9607;51.600;7.558;2023-04-15T07:49:40;11.50;99.90
18948;DHT22;9607;51.600;7.558;2023-04-15T07:52:07;11.50;99.90
18948;DHT22;9607;51.600;7.558;2023-04-15T07:54:34;11.60;99.90
18948;DHT22;9607;51.600;7.558;2023-04-15T07:57:01;11.60;99.90
18948;DHT22;9607;51.600;7.558;2023-04-15T07:59:28;11.50;99.90
18948;DHT22;9607;51.600;7.558;2023-04-15T08:01:59;11.20;99.90
18948;DHT22;9607;51.600;7.558;2023-04-15T08:04:26;11.10;99.90
18948;DHT22;9607;51.600;7.558;2023-04-15T08:06:53;11.10;99.90
18948;DHT22;9607;51.600;7.558;2023-04-15T08:09:19;11.10;99.90
18948;DHT22;9607;51.600;7.558;2023-04-15T08:11:48;11.10;99.90
18948;DHT22;9607;51.600;7.558;2023-04-15T08:14:15;11.00;99.90
18948;DHT22;9607;51.600;7.558;2023-04-15T08:16:42;11.00;99.90
18948;DHT22;9607;51.600;7.558;2023-04-15T08:19:10;10.90;99.90
18948;DHT22;9607;51.600;7.558;2023-04-15T08:21:37;11.10;99.90
18948;DHT22;9607;51.600;7.558;2023-04-15T08:24:04;11.40;99.90
18948;DHT22;9607;51.600;7.558;2023-04-15T08:26:31;11.50;99.90
18948;DHT22;9607;51.600;7.558;2023-04-15T08:28:58;11.60;99.90
18948;DHT22;9607;51.600;7.558;2023-04-15T08:31:26;11.60;99.90
18948;DHT22;9607;51.600;7.558;2023-04-15T08:33:53;11.50;99.90
18948;DHT22;9607;51.600;7.558;2023-04-15T08:36:22;11.60;99.90
18948;DHT22;9607;51.600;7.558;2023-04-15T08:38:49;11.70;99.90
18948;DHT22;9607;51.600;7.558;2023-04-15T08:41:20;11.70;99.90
18948;DHT22;9607;51.600;7.558;2023-04-15T08:43:52;11.80;99.90
18948;DHT22;9607;51.600;7.558;2023-04-15T08:46:20;12.10;99.90
18948;DHT22;9607;51.600;7.558;2023-04-15T08:48:47;12.20;99.90
18948;DHT22;9607;51.600;7.558;2023-04-15T08:51:15;12.20;99.90
18948;DHT22;9607;51.600;7.558;2023-04-15T08:53:44;12.20;99.90
18948;DHT22;9607;51.600;7.558;2023-04-15T08:56:13;12.30;99.90
18948;DHT22;9607;51.600;7.558;2023-04-15T08:58:41;12.20;99.90
18948;DHT22;9607;51.600;7.558;2023-04-15T09:01:09;12.00;99.90
18948;DHT22;9607;51.600;7.558;2023-04-15T09:03:37;11.70;99.90
18948;DHT22;9607;51.600;7.558;2023-04-15T09:06:04;11.50;99.90
18948;DHT22;9607;51.600;7.558;2023-04-15T09:08:31;11.50;99.90
18948;DHT22;9607;51.600;7.558;2023-04-15T09:11:00;11.60;99.90
18948;DHT22;9607;51.600;7.558;2023-04-15T09:13:27;11.50;99.90
18948;DHT22;9607;51.600;7.558;2023-04-15T09:15:54;11.30;99.90
18948;DHT22;9607;51.600;7.558;2023-04-15T09:18:30;11.20;99.90
18948;DHT22;9607;51.600;7.558;2023-04-15T09:21:05;11.10;99.90
18948;DHT22;9607;51.600;7.558;2023-04-15T09:23:34;11.00;99.90
18948;DHT22;9607;51.600;7.558;2023-04-15T09:26:03;11.10;99.90
18948;DHT22;9607;51.600;7.558;2023-04-15T09:28:31;11.10;99.90
18948;DHT22;9607;51.600;7.558;2023-04-15T09:30:59;11.20;99.90
18948;DHT22;9607;51.600;7.558;2023-04-15T09:33:27;11.10;99.90
18948;DHT22;9607;51.600;7.558;2023-04-15T09:35:59;11.20;99.90
18948;DHT22;9607;51.600;7.558;2023-04-15T09:38:27;11.30;99.90
18948;DHT22;9607;51.600;7.558;2023-04-15T09:40:54;11.50;99.90
18948;DHT22;9607;51.600;7.558;2023-04-15T09:43:36;11.60;99.90
18948;DHT22;9607;51.600;7.558;2023-04-15T09:46:04;11.50;99.90
18948;DHT22;9607;51.600;7.558;2023-04-15T09:48:31;11.60;99.90
18948;DHT22;9607;51.600;7.558;2023-04-15T09:50:59;11.70;99.90
18948;DHT22;9607;51.600;7.558;2023-04-15T09:53:27;11.70;99.90
18948;DHT22;9607;51.600;7.558;2023-04-15T09:55:55;11.60;99.90
18948;DHT22;9607;51.600;7.558;2023-04-15T09:58:25;11.40;99.90
18948;DHT22;9607;51.600;7.558;2023-04-15T10:00:54;11.40;99.90
18948;DHT22;9607;51.600;7.558;2023-04-15T10:03:22;11.50;99.90
18948;DHT22;9607;51.600;7.558;2023-04-15T10:05:51;11.60;99.90
18948;DHT22;9607;51.600;7.558;2023-04-15T10:08:20;11.60;99.90
18948;DHT22;9607;51.600;7.558;2023-04-15T10:10:48;11.50;99.90
18948;DHT22;9607;51.600;7.558;2023-04-15T10:13:17;11.50;99.90
18948;DHT22;9607;51.600;7.558;2023-04-15T10:15:50;11.50;99.90
18948;DHT22;9607;51.600;7.558;2023-04-15T10:18:19;11.50;99.90
18948;DHT22;9607;51.600;7.558;2023-04-15T10:20:47;11.40;99.90
18948;DHT22;9607;51.600;7.558;2023-04-15T10:23:14;11.30;99.90
18948;DHT22;9607;51.600;7.558;2023-04-15T10:25:42;11.20;99.90
18948;DHT22;9607;51.600;7.558;2023-04-15T10:28:09;11.10;99.90
18948;DHT22;9607;51.600;7.558;2023-04-15T10:30:37;11.10;99.90
18948;DHT22;9607;51.600;7.558;2023-04-15T10:33:06;11.00;99.90
18948;DHT22;9607;51.600;7.558;2023-04-15T10:35:35;10.90;99.90
18948;DHT22;9607;51.600;7.558;2023-04-15T10:38:05;10.80;99.90
18948;DHT22;9607;51.600;7.558;2023-04-15T10:40:52;10.80;99.90
18948;DHT22;9607;51.600;7.558;2023-04-15T10:43:24;10.90;99.90
18948;DHT22;9607;51.600;7.558;2023-04-15T10:45:52;10.80;99.90
18948;DHT22;9607;51.600;7.558;2023-04-15T10:48:21;10.80;99.90
18948;DHT22;9607;51.600;7.558;2023-04-15T10:50:55;10.80;99.90
18948;DHT22;9607;51.600;7.558;2023-04-15T10:53:27;10.80;99.90
18948;DHT22;9607;51.600;7.558;2023-04-15T10:55:54;10.60;99.90
18948;DHT22;9607;51.600;7.558;2023-04-15T10:58:24;10.50;99.90
18948;DHT22;9607;51.600;7.558;2023-04-15T11:00:52;10.40;99.90
18948;DHT22;9607;51.600;7.558;2023-04-15T11:03:36;10.30;99.90
18948;DHT22;9607;51.600;7.558;2023-04-15T11:06:04;10.30;99.90
18948;DHT22;9607;51.600;7.558;2023-04-15T11:08:54;10.40;99.90
18948;DHT22;9607;51.600;7.558;2023-04-15T11:11:22;10.40;99.90
18948;DHT22;9607;51.600;7.558;2023-04-15T11:13:49;10.40;99.90
18948;DHT22;9607;51.600;7.558;2023-04-15T11:16:17;10.50;99.90
18948;DHT22;9607;51.600;7.558;2023-04-15T11:18:54;10.60;99.90
18948;DHT22;9607;51.600;7.558;2023-04-15T11:21:24;10.60;99.90
18948;DHT22;9607;51.600;7.558;2023-04-15T11:23:52;10.60;99.90
18948;DHT22;9607;51.600;7.558;2023-04-15T11:26:25;10.60;99.90
18948;DHT22;9607;51.600;7.558;2023-04-15T11:28:52;10.70;99.90
18948;DHT22;9607;51.600;7.558;2023-04-15T11:31:19;10.80;99.90
18948;DHT22;9607;51.600;7.558;2023-04-15T11:33:55;10.70;99.90
18948;DHT22;9607;51.600;7.558;2023-04-15T11:36:24;10.70;99.90
18948;DHT22;9607;51.600;7.558;2023-04-15T11:38:52;10.60;99.90
18948;DHT22;9607;51.600;7.558;2023-04-15T11:41:20;10.60;99.90
18948;DHT22;9607;51.600;7.558;2023-04-15T11:43:47;10.60;99.90
18948;DHT22;9607;51.600;7.558;2023-04-15T11:46:14;10.60;99.90
18948;DHT22;9607;51.600;7.558;2023-04-15T11:48:42;10.60;99.90
18948;DHT22;9607;51.600;7.558;2023-04-15T11:51:11;10.60;99.90
18948;DHT22;9607;51.600;7.558;2023-04-15T11:53:40;10.60;99.90
18948;DHT22;9607;51.600;7.558;2023-04-15T11:56:08;10.70;99.90
18948;DHT22;9607;51.600;7.558;2023-04-15T11:58:36;10.60;99.90
18948;DHT22;9607;51.600;7.558;2023-04-15T12:01:05;10.60;99.90
18948;DHT22;9607;51.600;7.558;2023-04-15T12:03:37;10.60;99.90
18948;DHT22;9607;51.600;7.558;2023-04-15T12:06:09;10.40;99.90
18948;DHT22;9607;51.600;7.558;2023-04-15T12:08:59;10.40;99.90
18948;DHT22;9607;51.600;7.558;2023-04-15T12:11:43;10.30;99.90
18948;DHT22;9607;51.600;7.558;2023-04-15T12:14:15;10.40;99.90
18948;DHT22;9607;51.600;7.558;2023-04-15T12:16:44;10.50;99.90
18948;DHT22;9607;51.600;7.558;2023-04-15T12:19:12;10.30;99.90
18948;DHT22;9607;51.600;7.558;2023-04-15T12:21:41;10.20;99.90
18948;DHT22;9607;51.600;7.558;2023-04-15T12:24:11;10.20;99.90
18948;DHT22;9607;51.600;7.558;2023-04-15T12:26:43;10.10;99.90
18948;DHT22;9607;51.600;7.558;2023-04-15T12:29:11;10.10;99.90
18948;DHT22;9607;51.600;7.558;2023-04-15T12:31:46;10.10;99.90
18948;DHT22;9607;51.600;7.558;2023-04-15T12:34:14;10.10;99.90
18948;DHT22;9607;51.600;7.558;2023-04-15T12:36:41;10.00;99.90
18948;DHT22;9607;51.600;7.558;2023-04-15T12:39:08;10.00;99.90
18948;DHT22;9607;51.600;7.558;2023-04-15T12:41:36;10.00;99.90
18948;DHT22;9607;51.600;7.558;2023-04-15T12:44:03;10.00;99.90
18948;DHT22;9607;51.600;7.558;2023-04-15T12:46:31;9.90;99.90
18948;DHT22;9607;51.600;7.558;2023-04-15T12:48:58;9.80;99.90
18948;DHT22;9607;51.600;7.558;2023-04-15T12:51:25;9.80;99.90
18948;DHT22;9607;51.600;7.558;2023-04-15T12:53:52;9.80;99.90
18948;DHT22;9607;51.600;7.558;2023-04-15T12:56:19;9.80;99.90
18948;DHT22;9607;51.600;7.558;2023-04-15T12:58:48;9.70;99.90
18948;DHT22;9607;51.600;7.558;2023-04-15T13:01:15;9.80;99.90
18948;DHT22;9607;51.600;7.558;2023-04-15T13:03:43;9.70;99.90
18948;DHT22;9607;51.600;7.558;2023-04-15T13:06:10;9.70;99.90
18948;DHT22;9607;51.600;7.558;2023-04-15T13:08:37;9.70;99.90
18948;DHT22;9607;51.600;7.558;2023-04-15T13:11:04;9.70;99.90
18948;DHT22;9607;51.600;7.558;2023-04-15T13:13:31;9.70;99.90
18948;DHT22;9607;51.600;7.558;2023-04-15T13:15:59;9.60;99.90
18948;DHT22;9607;51.600;7.558;2023-04-15T13:18:26;9.70;99.90
18948;DHT22;9607;51.600;7.558;2023-04-15T13:20:53;9.70;99.90
18948;DHT22;9607;51.600;7.558;2023-04-15T13:23:21;9.60;99.90
18948;DHT22;9607;51.600;7.558;2023-04-15T13:25:47;9.60;99.90
18948;DHT22;9607;51.600;7.558;2023-04-15T13:28:14;9.60;99.90
18948;DHT22;9607;51.600;7.558;2023-04-15T13:30:41;9.70;99.90
18948;DHT22;9607;51.600;7.558;2023-04-15T13:33:11;9.70;99.90
18948;DHT22;9607;51.600;7.558;2023-04-15T13:35:39;9.70;99.90
18948;DHT22;9607;51.600;7.558;2023-04-15T13:38:06;9.80;99.90
18948;DHT22;9607;51.600;7.558;2023-04-15T13:40:33;9.80;99.90
18948;DHT22;9607;51.600;7.558;2023-04-15T13:42:59;9.90;99.90
18948;DHT22;9607;51.600;7.558;2023-04-15T13:45:27;9.90;99.90
18948;DHT22;9607;51.600;7.558;2023-04-15T13:47:54;9.90;99.90
18948;DHT22;9607;51.600;7.558;2023-04-15T13:50:23;10.00;99.90
18948;DHT22;9607;51.600;7.558;2023-04-15T13:52:50;10.10;99.90
18948;DHT22;9607;51.600;7.558;2023-04-15T13:55:17;10.00;99.90
18948;DHT22;9607;51.600;7.558;2023-04-15T13:57:44;10.10;99.90
18948;DHT22;9607;51.600;7.558;2023-04-15T14:00:12;10.10;99.90
18948;DHT22;9607;51.600;7.558;2023-04-15T14:02:39;10.10;99.90
18948;DHT22;9607;51.600;7.558;2023-04-15T14:05:06;10.00;99.90
18948;DHT22;9607;51.600;7.558;2023-04-15T14:07:35;10.00;99.90
18948;DHT22;9607;51.600;7.558;2023-04-15T14:10:02;10.00;99.90
18948;DHT22;9607;51.600;7.558;2023-04-15T14:12:29;10.00;99.90
18948;DHT22;9607;51.600;7.558;2023-04-15T14:14:56;9.90;99.90
18948;DHT22;9607;51.600;7.558;2023-04-15T14:17:23;9.90;99.90
18948;DHT22;9607;51.600;7.558;2023-04-15T14:19:50;9.90;99.90
18948;DHT22;9607;51.600;7.558;2023-04-15T14:22:17;9.90;99.90
18948;DHT22;9607;51.600;7.558;2023-04-15T14:24:45;9.90;99.90
18948;DHT22;9607;51.600;7.558;2023-04-15T14:27:13;9.80;99.90
18948;DHT22;9607;51.600;7.558;2023-04-15T14:29:41;9.80;99.90
18948;DHT22;9607;51.600;7.558;2023-04-15T14:32:07;9.80;99.90
18948;DHT22;9607;51.600;7.558;2023-04-15T14:34:35;9.80;99.90
18948;DHT22;9607;51.600;7.558;2023-04-15T14:37:02;9.70;99.90
18948;DHT22;9607;51.600;7.558;2023-04-15T14:39:29;9.70;99.90
18948;DHT22;9607;51.600;7.558;2023-04-15T14:41:57;9.70;99.90
18948;DHT22;9607;51.600;7.558;2023-04-15T14:44:24;9.70;99.90
18948;DHT22;9607;51.600;7.558;2023-04-15T14:46:51;9.60;99.90
18948;DHT22;9607;51.600;7.558;2023-04-15T14:49:19;9.50;99.90
18948;DHT22;9607;51.600;7.558;2023-04-15T14:51:46;9.50;99.90
18948;DHT22;9607;51.600;7.558;2023-04-15T14:54:12;9.40;99.90
18948;DHT22;9607;51.600;7.558;2023-04-15T14:56:39;9.40;99.90
18948;DHT22;9607;51.600;7.558;2023-04-15T14:59:08;9.30;99.90
18948;DHT22;9607;51.600;7.558;2023-04-15T15:01:35;9.20;99.90
18948;DHT22;9607;51.600;7.558;2023-04-15T15:04:02;9.20;99.90
18948;DHT22;9607;51.600;7.558;2023-04-15T15:06:29;9.10;99.90
18948;DHT22;9607;51.600;7.558;2023-04-15T15:08:56;9.00;99.90
18948;DHT22;9607;51.600;7.558;2023-04-15T15:11:24;9.00;99.90
18948;DHT22;9607;51.600;7.558;2023-04-15T15:13:51;9.00;99.90
18948;DHT22;9607;51.600;7.558;2023-04-15T15:16:19;9.00;99.90
18948;DHT22;9607;51.600;7.558;2023-04-15T15:18:46;8.90;99.90
18948;DHT22;9607;51.600;7.558;2023-04-15T15:21:13;8.90;99.90
18948;DHT22;9607;51.600;7.558;2023-04-15T15:23:40;8.90;99.90
18948;DHT22;9607;51.600;7.558;2023-04-15T15:26:07;8.90;99.90
18948;DHT22;9607;51.600;7.558;2023-04-15T15:28:34;8.90;99.90
18948;DHT22;9607;51.600;7.558;2023-04-15T15:31:00;8.90;99.90
18948;DHT22;9607;51.600;7.558;2023-04-15T15:33:30;8.80;99.90
18948;DHT22;9607;51.600;7.558;2023-04-15T15:35:57;8.80;99.90
18948;DHT22;9607;51.600;7.558;2023-04-15T15:38:24;8.80;99.90
18948;DHT22;9607;51.600;7.558;2023-04-15T15:40:51;8.80;99.90
18948;DHT22;9607;51.600;7.558;2023-04-15T15:43:18;8.80;99.90
18948;DHT22;9607;51.600;7.558;2023-04-15T15:45:45;8.80;99.90
18948;DHT22;9607;51.600;7.558;2023-04-15T15:48:12;8.80;99.90
18948;DHT22;9607;51.600;7.558;2023-04-15T15:50:40;8.70;99.90
18948;DHT22;9607;51.600;7.558;2023-04-15T15:53:08;8.70;99.90
18948;DHT22;9607;51.600;7.558;2023-04-15T15:55:42;8.70;99.90
18948;DHT22;9607;51.600;7.558;2023-04-15T15:58:10;8.70;99.90
18948;DHT22;9607;51.600;7.558;2023-04-15T16:00:37;8.70;99.90
18948;DHT22;9607;51.600;7.558;2023-04-15T16:03:04;8.70;99.90